Bass Lake, California
Current Conditions -  °F | °C
As of 1:59 AM on Wednesday 26 Nov 2014 (Local Time) from KMAE Reporting Station
Haze Haze  
Wind Chill: 40°   Ceiling: Unl
Heat Index: 40°   Visibility: 3mi
Dew Point: 37°   Wind: 0mph
Humidity: 89%   Direction: NA
Pressure: 30.35"   Gusts: NA
Location:  37.32°N, 119.56°W
Report Text: KMAE 260959Z AUTO 00000KT 3SM BR CLR 04/03 A3035 RMK AO2 T00440028
Loading
Personal Weather Stations






























Interactive Weather Map New forecast layout! Learn more

10-Day Weather Forecast

Advertisements
Track Severe Weather on mobile